createdAt,value
2023-05-02T00:01:25.774Z,11.87
2023-05-02T00:06:29.159Z,11.82
2023-05-02T00:11:32.162Z,11.80
2023-05-02T00:16:36.537Z,11.81
2023-05-02T00:21:39.570Z,11.83
2023-05-02T00:26:42.891Z,11.86
2023-05-02T00:31:47.225Z,11.84
2023-05-02T00:36:50.616Z,11.78
2023-05-02T00:41:57.709Z,11.78
2023-05-02T00:47:03.056Z,11.80
2023-05-02T00:52:07.641Z,11.81
2023-05-02T00:57:10.667Z,11.76
2023-05-02T01:02:31.571Z,11.72
2023-05-02T01:07:55.779Z,11.61
2023-05-02T01:13:04.587Z,11.59
2023-05-02T01:18:10.613Z,11.39
2023-05-02T01:23:22.702Z,11.33
2023-05-02T01:28:37.470Z,11.25
2023-05-02T01:33:44.142Z,11.18
2023-05-02T01:38:48.433Z,11.17
2023-05-02T01:43:52.465Z,11.03
2023-05-02T01:49:00.049Z,11.08
2023-05-02T01:54:06.092Z,10.92
2023-05-02T01:59:12.530Z,10.93
2023-05-02T02:04:18.194Z,10.80
2023-05-02T02:09:21.322Z,10.62
2023-05-02T02:14:28.926Z,10.52
2023-05-02T02:19:34.581Z,10.34
2023-05-02T02:24:39.997Z,10.15
2023-05-02T02:29:43.410Z,10.08
2023-05-02T02:34:47.762Z,9.99
2023-05-02T02:39:56.980Z,9.94
2023-05-02T02:45:10.157Z,9.84
2023-05-02T02:50:21.029Z,9.75
2023-05-02T02:55:37.694Z,9.62
2023-05-02T03:00:41.504Z,9.53
2023-05-02T03:05:46.321Z,9.45
2023-05-02T03:10:49.422Z,9.39
2023-05-02T03:16:19.195Z,9.34
2023-05-02T03:21:23.676Z,9.33
2023-05-02T03:26:26.846Z,9.25
2023-05-02T03:31:29.939Z,9.17
2023-05-02T03:36:34.513Z,9.24
2023-05-02T03:41:37.601Z,9.16
2023-05-02T03:46:40.704Z,9.25
2023-05-02T03:51:45.118Z,9.26
2023-05-02T03:56:48.114Z,9.19
2023-05-02T04:01:51.642Z,9.16
2023-05-02T04:06:56.085Z,9.09
2023-05-02T04:11:59.141Z,9.14
2023-05-02T04:17:02.261Z,9.06
2023-05-02T04:22:06.905Z,9.03
2023-05-02T04:27:10.109Z,9.13
2023-05-02T04:32:13.345Z,9.10
2023-05-02T04:37:17.839Z,9.08
2023-05-02T04:42:21.313Z,9.13
2023-05-02T04:47:24.394Z,9.25
2023-05-02T04:52:28.883Z,9.35
2023-05-02T04:57:31.938Z,9.36
2023-05-02T05:02:35.087Z,9.36
2023-05-02T05:07:39.446Z,9.50
2023-05-02T05:12:42.466Z,9.65
2023-05-02T05:17:45.503Z,9.91
2023-05-02T05:22:50.289Z,10.14
2023-05-02T05:27:53.353Z,10.43
2023-05-02T05:32:56.423Z,10.58
2023-05-02T05:38:00.933Z,10.74
2023-05-02T05:43:03.934Z,10.94
2023-05-02T05:48:07.672Z,11.06
2023-05-02T05:53:12.566Z,11.26
2023-05-02T05:58:15.757Z,11.44
2023-05-02T06:03:19.065Z,11.45
2023-05-02T06:08:23.498Z,11.40
2023-05-02T06:13:27.002Z,11.51
2023-05-02T06:18:30.077Z,11.67
2023-05-02T06:23:34.644Z,11.98
2023-05-02T06:28:37.703Z,12.46
2023-05-02T06:33:41.318Z,12.73
2023-05-02T06:38:45.766Z,13.10
2023-05-02T06:43:48.791Z,13.17
2023-05-02T06:48:51.837Z,13.25
2023-05-02T06:53:56.177Z,13.05
2023-05-02T06:58:59.331Z,12.79
2023-05-02T07:04:03.865Z,12.66
2023-05-02T07:09:08.265Z,12.47
2023-05-02T07:14:11.290Z,12.43
2023-05-02T07:19:14.649Z,12.44
2023-05-02T07:24:19.052Z,12.48
2023-05-02T07:29:22.078Z,12.47
2023-05-02T07:34:25.091Z,12.39
2023-05-02T07:39:30.288Z,12.33
2023-05-02T07:44:34.949Z,12.40
2023-05-02T07:49:38.002Z,12.49
2023-05-02T07:54:42.457Z,12.55
2023-05-02T07:59:45.706Z,12.64
2023-05-02T08:04:49.077Z,12.81
2023-05-02T08:09:53.509Z,13.13
2023-05-02T08:14:56.512Z,13.48
2023-05-02T08:20:01.771Z,13.78
2023-05-02T08:25:07.634Z,14.23
2023-05-02T08:30:11.157Z,14.25
2023-05-02T08:35:14.403Z,14.60
2023-05-02T08:40:27.324Z,15.11
2023-05-02T08:45:43.630Z,15.46
2023-05-02T08:50:48.391Z,15.66
2023-05-02T08:55:53.466Z,15.19
2023-05-02T09:00:58.183Z,14.83
2023-05-02T09:06:08.941Z,14.78
2023-05-02T09:11:14.310Z,14.75
2023-05-02T09:16:22.569Z,14.78
2023-05-02T09:21:27.230Z,14.69
2023-05-02T09:26:33.352Z,15.80
2023-05-02T09:31:54.856Z,16.24
2023-05-02T09:36:59.218Z,16.54
2023-05-02T09:42:04.127Z,16.94
2023-05-02T09:47:09.276Z,18.80
2023-05-02T09:52:13.203Z,20.39
2023-05-02T09:57:17.558Z,20.80
2023-05-02T10:02:21.665Z,21.24
2023-05-02T10:07:25.512Z,20.58
2023-05-02T10:12:33.634Z,20.75
2023-05-02T10:17:42.086Z,20.04
2023-05-02T10:22:48.209Z,19.51
2023-05-02T10:27:52.940Z,20.18
2023-05-02T10:32:57.996Z,20.67
2023-05-02T10:38:02.870Z,20.23
2023-05-02T10:43:07.932Z,21.03
2023-05-02T10:48:14.924Z,19.32
2023-05-02T10:53:28.170Z,20.01
2023-05-02T10:58:32.799Z,21.14
2023-05-02T11:03:55.211Z,21.35
2023-05-02T11:09:35.667Z,20.49
2023-05-02T11:14:49.695Z,18.60
2023-05-02T11:20:26.617Z,18.63
2023-05-02T11:25:31.503Z,19.02
2023-05-02T11:30:40.919Z,18.64
2023-05-02T11:35:46.879Z,18.71
2023-05-02T11:40:57.378Z,18.11
2023-05-02T11:46:03.123Z,18.20
2023-05-02T11:51:07.413Z,19.09
2023-05-02T11:56:10.735Z,19.88
2023-05-02T12:01:16.007Z,19.36
2023-05-02T12:06:20.167Z,18.31
2023-05-02T12:11:24.682Z,17.97
2023-05-02T12:16:29.337Z,17.52
2023-05-02T12:21:33.535Z,17.59
2023-05-02T12:26:37.062Z,17.76
2023-05-02T12:31:52.138Z,19.66
2023-05-02T12:36:55.242Z,20.96
2023-05-02T12:41:58.378Z,20.85
2023-05-02T12:47:02.769Z,19.30
2023-05-02T12:52:05.816Z,18.24
2023-05-02T12:57:09.295Z,17.73
2023-05-02T13:02:13.744Z,17.72
2023-05-02T13:07:16.879Z,17.48
2023-05-02T13:12:19.884Z,17.14
2023-05-02T13:17:24.329Z,16.94
2023-05-02T13:22:27.466Z,16.91
2023-05-02T13:27:30.501Z,17.12
2023-05-02T13:32:34.837Z,17.40
2023-05-02T13:37:38.169Z,18.19
2023-05-02T13:42:41.320Z,18.38
2023-05-02T13:47:46.094Z,18.25
2023-05-02T13:52:49.510Z,17.70
2023-05-02T13:57:52.576Z,17.99
2023-05-02T14:02:57.061Z,18.30
2023-05-02T14:08:00.323Z,18.17
2023-05-02T14:13:03.310Z,19.56
2023-05-02T14:18:07.750Z,20.27
2023-05-02T14:23:10.983Z,20.94
2023-05-02T14:28:14.244Z,20.63
2023-05-02T14:33:18.631Z,19.81
2023-05-02T14:38:21.657Z,20.10
2023-05-02T14:43:25.066Z,20.68
2023-05-02T14:48:29.436Z,20.44
2023-05-02T14:53:32.621Z,19.52
2023-05-02T14:58:35.630Z,18.94
2023-05-02T15:03:52.455Z,18.63
2023-05-02T15:09:03.161Z,17.99
2023-05-02T15:14:06.493Z,17.45
2023-05-02T15:19:11.297Z,16.88
2023-05-02T15:53:57.634Z,17.03
2023-05-02T15:59:00.667Z,16.94
2023-05-02T16:04:06.166Z,16.51
2023-05-02T16:09:12.722Z,16.07
2023-05-02T16:14:15.712Z,15.64
2023-05-02T16:19:19.382Z,15.45
2023-05-02T16:24:24.165Z,15.40
2023-05-02T16:29:27.176Z,15.45
2023-05-02T16:34:32.868Z,15.03
2023-05-02T16:39:37.871Z,15.08
2023-05-02T16:44:41.077Z,14.82
2023-05-02T16:49:44.499Z,14.65
2023-05-02T16:54:49.166Z,14.62
2023-05-02T16:59:53.231Z,14.50
2023-05-02T17:04:56.272Z,14.39
2023-05-02T17:10:00.827Z,14.42
2023-05-02T17:15:04.599Z,14.39
2023-05-02T17:20:08.413Z,14.27
2023-05-02T17:25:12.880Z,14.35
2023-05-02T17:30:16.249Z,14.13
2023-05-02T17:35:19.554Z,14.17
2023-05-02T17:40:24.431Z,13.84
2023-05-02T17:45:29.987Z,13.69
2023-05-02T17:50:37.383Z,13.22
2023-05-02T17:55:41.910Z,12.85
2023-05-02T18:00:45.531Z,12.64
2023-05-02T18:05:48.553Z,12.37
2023-05-02T18:10:52.900Z,12.22
2023-05-02T18:15:57.021Z,12.05
2023-05-02T18:21:00.662Z,11.80
2023-05-02T18:26:05.463Z,11.65
2023-05-02T18:31:17.031Z,11.38
2023-05-02T18:36:25.678Z,11.13
2023-05-02T18:41:30.099Z,10.93
2023-05-02T18:46:33.287Z,10.77
2023-05-02T18:51:36.576Z,10.50
2023-05-02T18:56:42.225Z,10.34
2023-05-02T19:01:47.085Z,10.21
2023-05-02T19:06:50.371Z,10.00
2023-05-02T19:11:55.111Z,9.84
2023-05-02T19:16:58.247Z,9.69
2023-05-02T19:22:01.335Z,9.52
2023-05-02T19:27:08.121Z,9.38
2023-05-02T19:32:11.203Z,9.26
2023-05-02T19:37:14.342Z,9.10
2023-05-02T19:42:18.713Z,8.85
2023-05-02T19:47:22.357Z,8.76
2023-05-02T19:52:25.661Z,8.73
2023-05-02T19:57:30.375Z,8.67
2023-05-02T20:02:33.685Z,8.60
2023-05-02T20:07:36.849Z,8.43
2023-05-02T20:12:44.610Z,8.42
2023-05-02T20:17:48.193Z,8.36
2023-05-02T20:22:51.421Z,8.32
2023-05-02T20:27:55.868Z,8.26
2023-05-02T20:33:10.459Z,8.14
2023-05-02T20:38:17.666Z,8.05
2023-05-02T20:43:23.551Z,7.91
2023-05-02T20:48:26.729Z,7.81
2023-05-02T20:53:29.849Z,7.71
2023-05-02T20:58:34.478Z,7.63
2023-05-02T21:03:40.593Z,7.52
2023-05-02T21:08:43.819Z,7.47
2023-05-02T21:13:48.175Z,7.47
2023-05-02T21:18:51.176Z,7.45
2023-05-02T21:23:54.157Z,7.45
2023-05-02T21:28:58.876Z,7.38
2023-05-02T21:34:01.896Z,7.34
2023-05-02T21:39:05.340Z,7.25
2023-05-02T21:44:11.242Z,7.24
2023-05-02T21:49:14.250Z,7.20
2023-05-02T21:54:17.389Z,7.16
2023-05-02T21:59:22.213Z,7.03
2023-05-02T22:04:25.791Z,6.95
2023-05-02T22:09:29.512Z,6.85
2023-05-02T22:14:44.504Z,6.82
2023-05-02T22:19:49.508Z,6.75
2023-05-02T22:24:52.512Z,6.63
2023-05-02T22:29:57.665Z,6.55
2023-05-02T22:35:01.076Z,6.47
2023-05-02T22:40:04.802Z,6.46
2023-05-02T22:45:11.051Z,6.33
2023-05-02T22:50:14.312Z,6.28
2023-05-02T22:55:17.521Z,6.23
2023-05-02T23:00:22.559Z,6.33
2023-05-02T23:05:26.758Z,6.24
2023-05-02T23:10:29.780Z,6.19
2023-05-02T23:15:34.109Z,6.07
2023-05-02T23:20:37.269Z,6.02
2023-05-02T23:25:40.688Z,5.96
2023-05-02T23:30:45.235Z,5.92
2023-05-02T23:35:48.673Z,5.87
2023-05-02T23:40:52.693Z,5.75
2023-05-02T23:45:57.060Z,5.70
2023-05-02T23:51:00.454Z,5.63
2023-05-02T23:56:03.456Z,5.62
